Time;durP1;ratioP1;P1;durP2;ratioP2;P2;SDS_P1;SDS_P2;PMS_P1;PMS_P2;Temp;Humidity;BMP_temperature;BMP_pressure;BME280_temperature;BME280_humidity;BME280_pressure;Samples;Min_cycle;Max_cycle;Signal;HPM_P1;HPM_P2
2023/11/09 00:02:01;;;;;;;2.13;2.03;;;;;;;;;;5015248;28;20237;-72
2023/11/09 00:04:26;;;;;;;4.13;1.83;;;;;;;;;;5012772;28;20255;-72
2023/11/09 00:06:52;;;;;;;3.78;2.30;;;;;;;;;;5030506;28;20186;-73
2023/11/09 00:09:17;;;;;;;3.03;2.05;;;;;;;;;;5027536;28;20220;-73
2023/11/09 00:11:44;;;;;;;2.15;1.95;;;;;;;;;;5031602;28;20521;-74
2023/11/09 00:14:15;;;;;;;2.75;1.65;;;;;;;;;;5024201;28;20190;-72
2023/11/09 00:16:41;;;;;;;2.35;2.15;;;;;;;;;;5021468;28;20301;-73
2023/11/09 00:19:06;;;;;;;3.25;2.42;;;;;;;;;;5014523;28;20190;-73
2023/11/09 00:21:32;;;;;;;3.03;2.08;;;;;;;;;;5021767;28;20198;-72
2023/11/09 00:23:58;;;;;;;2.50;2.13;;;;;;;;;;5019250;28;20193;-73
2023/11/09 00:26:24;;;;;;;2.58;2.03;;;;;;;;;;5031540;28;20264;-74
2023/11/09 00:28:50;;;;;;;4.25;2.45;;;;;;;;;;5025935;28;20202;-73
2023/11/09 00:31:17;;;;;;;2.22;1.70;;;;;;;;;;5026858;28;20298;-73
2023/11/09 00:33:43;;;;;;;2.20;2.00;;;;;;;;;;5021509;28;20198;-72
2023/11/09 00:36:09;;;;;;;1.70;1.60;;;;;;;;;;5029576;28;20298;-72
2023/11/09 00:38:34;;;;;;;3.67;2.10;;;;;;;;;;5024915;28;20190;-73
2023/11/09 00:40:59;;;;;;;3.53;2.45;;;;;;;;;;5028116;28;20269;-72
2023/11/09 00:43:26;;;;;;;2.63;2.20;;;;;;;;;;5023608;28;20190;-72
2023/11/09 00:45:51;;;;;;;3.08;1.85;;;;;;;;;;5020578;28;20194;-72
2023/11/09 00:48:16;;;;;;;2.15;1.88;;;;;;;;;;5031898;28;20669;-72
2023/11/09 00:50:42;;;;;;;2.78;1.88;;;;;;;;;;5023787;28;20205;-72
2023/11/09 00:53:07;;;;;;;2.78;2.05;;;;;;;;;;5028571;28;20247;-73
2023/11/09 00:55:33;;;;;;;1.90;1.80;;;;;;;;;;5020371;28;20542;-73
2023/11/09 00:57:58;;;;;;;2.25;1.90;;;;;;;;;;5020116;28;20198;-72
2023/11/09 01:00:23;;;;;;;3.83;1.92;;;;;;;;;;5031330;28;20193;-72
2023/11/09 01:02:50;;;;;;;2.38;1.92;;;;;;;;;;5028655;28;20204;-72
2023/11/09 01:05:16;;;;;;;3.58;2.10;;;;;;;;;;5036620;28;20198;-73
2023/11/09 01:07:42;;;;;;;3.20;1.80;;;;;;;;;;5030117;28;20186;-73
2023/11/09 01:10:07;;;;;;;2.42;1.95;;;;;;;;;;5026174;28;20266;-73
2023/11/09 01:12:33;;;;;;;3.42;2.10;;;;;;;;;;5023999;28;20234;-74
2023/11/09 01:14:58;;;;;;;3.53;2.00;;;;;;;;;;5044864;28;20236;-71
2023/11/09 01:17:24;;;;;;;3.45;2.15;;;;;;;;;;5028856;28;20336;-72
2023/11/09 01:19:50;;;;;;;2.38;2.17;;;;;;;;;;5016120;28;20269;-72
2023/11/09 01:22:16;;;;;;;2.38;2.17;;;;;;;;;;5019856;28;20292;-72
2023/11/09 01:24:41;;;;;;;3.00;2.00;;;;;;;;;;5031048;28;20197;-71
2023/11/09 01:27:07;;;;;;;3.10;2.13;;;;;;;;;;5023212;28;20202;-72
2023/11/09 01:29:32;;;;;;;3.10;2.13;;;;;;;;;;5017971;28;20276;-74
2023/11/09 01:31:58;;;;;;;4.82;2.05;;;;;;;;;;5020327;28;20197;-73
2023/11/09 01:34:24;;;;;;;2.20;2.00;;;;;;;;;;5025217;28;20206;-73
2023/11/09 01:36:51;;;;;;;2.97;2.47;;;;;;;;;;5030662;28;20196;-75
2023/11/09 01:39:17;;;;;;;3.00;2.30;;;;;;;;;;5027684;28;20200;-72
2023/11/09 01:41:44;;;;;;;3.28;2.15;;;;;;;;;;5023295;28;20686;-72
2023/11/09 01:44:10;;;;;;;2.13;1.98;;;;;;;;;;5037763;28;20259;-72
2023/11/09 01:46:39;;;;;;;2.92;2.50;;;;;;;;;;5024665;28;20272;-72
2023/11/09 01:49:05;;;;;;;2.88;2.33;;;;;;;;;;5027848;28;20190;-72
2023/11/09 01:51:32;;;;;;;2.40;2.20;;;;;;;;;;5016650;28;20233;-71
2023/11/09 01:53:57;;;;;;;5.07;2.90;;;;;;;;;;5025489;28;20190;-74
2023/11/09 01:56:23;;;;;;;3.35;2.30;;;;;;;;;;5031116;28;20228;-73
2023/11/09 01:58:50;;;;;;;2.40;2.20;;;;;;;;;;5028569;28;20188;-73
2023/11/09 02:01:16;;;;;;;3.28;2.45;;;;;;;;;;5020932;28;20248;-72
2023/11/09 02:03:43;;;;;;;2.92;2.10;;;;;;;;;;5024408;28;20201;-74
2023/11/09 02:06:12;;;;;;;4.97;2.20;;;;;;;;;;5030010;28;20217;-74
2023/11/09 02:08:39;;;;;;;2.70;2.50;;;;;;;;;;5023577;28;20190;-73
2023/11/09 02:11:05;;;;;;;3.15;2.05;;;;;;;;;;5019520;28;20666;-73
2023/11/09 02:13:32;;;;;;;3.38;1.70;;;;;;;;;;5019388;28;20182;-73
2023/11/09 02:15:59;;;;;;;3.08;2.10;;;;;;;;;;5026158;28;20631;-75
2023/11/09 02:18:26;;;;;;;4.05;1.83;;;;;;;;;;5020774;28;20212;-73
2023/11/09 02:20:53;;;;;;;2.20;2.00;;;;;;;;;;5038197;28;20218;-74
2023/11/09 02:23:23;;;;;;;1.63;1.27;;;;;;;;;;5017547;28;20218;-75
2023/11/09 02:25:49;;;;;;;4.78;1.65;;;;;;;;;;5021196;28;20175;-75
2023/11/09 02:28:22;;;;;;;3.22;1.50;;;;;;;;;;5028004;28;20186;-75
2023/11/09 02:30:47;;;;;;;1.95;1.50;;;;;;;;;;5017380;28;20258;-75
2023/11/09 02:33:13;;;;;;;3.25;1.40;;;;;;;;;;5025887;28;20650;-76
2023/11/09 02:35:45;;;;;;;2.28;1.45;;;;;;;;;;5021069;28;20301;-74
2023/11/09 02:38:11;;;;;;;3.13;1.80;;;;;;;;;;5019499;28;20673;-74
2023/11/09 02:40:39;;;;;;;2.65;1.50;;;;;;;;;;5018485;28;20274;-74
2023/11/09 02:43:05;;;;;;;3.97;1.60;;;;;;;;;;5038551;28;20206;-73
2023/11/09 02:45:30;;;;;;;3.40;1.88;;;;;;;;;;5008902;28;20253;-74
2023/11/09 02:47:56;;;;;;;1.70;1.58;;;;;;;;;;5025043;28;20233;-73
2023/11/09 02:50:22;;;;;;;2.28;1.85;;;;;;;;;;5020018;28;20197;-73
2023/11/09 02:52:48;;;;;;;2.60;2.15;;;;;;;;;;5022667;28;20193;-73
2023/11/09 02:55:14;;;;;;;2.72;2.10;;;;;;;;;;5033037;28;20547;-74
2023/11/09 02:57:39;;;;;;;2.63;2.10;;;;;;;;;;5031434;28;20226;-74
2023/11/09 03:00:06;;;;;;;2.65;1.95;;;;;;;;;;5040066;28;20236;-73
2023/11/09 03:02:32;;;;;;;2.78;1.80;;;;;;;;;;5024068;28;20586;-73
2023/11/09 03:04:58;;;;;;;1.67;1.55;;;;;;;;;;5016965;28;20684;-73
2023/11/09 03:07:25;;;;;;;2.75;1.90;;;;;;;;;;5044399;28;20190;-73
2023/11/09 03:09:50;;;;;;;2.60;2.28;;;;;;;;;;5028038;28;20198;-74
2023/11/09 03:12:16;;;;;;;2.15;1.98;;;;;;;;;;5010859;28;20658;-73
2023/11/09 03:14:41;;;;;;;2.10;2.00;;;;;;;;;;5022461;28;20237;-73
2023/11/09 03:17:07;;;;;;;2.08;1.92;;;;;;;;;;5015676;28;20237;-73
2023/11/09 03:19:33;;;;;;;2.83;2.13;;;;;;;;;;5044585;28;20197;-73
2023/11/09 03:21:58;;;;;;;2.45;2.08;;;;;;;;;;5022863;28;20544;-73
2023/11/09 03:24:24;;;;;;;4.75;1.95;;;;;;;;;;5019737;28;20579;-73
2023/11/09 03:26:49;;;;;;;3.08;2.10;;;;;;;;;;5038381;28;20203;-73
2023/11/09 03:29:15;;;;;;;3.15;2.13;;;;;;;;;;5027876;28;20256;-73
2023/11/09 03:31:40;;;;;;;2.75;2.13;;;;;;;;;;5026962;28;20194;-73
2023/11/09 03:34:05;;;;;;;2.22;1.83;;;;;;;;;;5010240;28;20194;-72
2023/11/09 03:36:31;;;;;;;2.22;2.08;;;;;;;;;;5028967;28;20320;-73
2023/11/09 03:38:56;;;;;;;2.35;2.15;;;;;;;;;;5001845;28;20190;-72
2023/11/09 03:41:24;;;;;;;2.47;2.28;;;;;;;;;;5017337;28;20581;-73
2023/11/09 03:43:49;;;;;;;3.47;2.10;;;;;;;;;;5040203;28;20218;-72
2023/11/09 03:46:15;;;;;;;2.78;2.40;;;;;;;;;;5018633;28;20230;-72
2023/11/09 03:48:40;;;;;;;5.07;2.30;;;;;;;;;;5011723;28;20202;-73
2023/11/09 03:51:07;;;;;;;2.88;2.67;;;;;;;;;;5031392;28;20194;-73
2023/11/09 03:53:32;;;;;;;2.65;2.45;;;;;;;;;;5028640;28;20273;-73
2023/11/09 03:55:57;;;;;;;3.58;2.78;;;;;;;;;;5029718;28;20306;-72
2023/11/09 03:58:23;;;;;;;2.50;2.30;;;;;;;;;;5021888;28;20194;-74
2023/11/09 04:00:48;;;;;;;2.65;2.45;;;;;;;;;;5026708;28;20201;-74
2023/11/09 04:03:14;;;;;;;4.75;2.50;;;;;;;;;;5030155;28;20193;-76
2023/11/09 04:05:40;;;;;;;2.90;2.58;;;;;;;;;;5034503;28;20343;-74
2023/11/09 04:08:06;;;;;;;5.07;2.70;;;;;;;;;;5031631;28;20205;-74
2023/11/09 04:10:34;;;;;;;4.65;2.83;;;;;;;;;;5029366;28;20182;-74
2023/11/09 04:13:00;;;;;;;2.90;2.55;;;;;;;;;;5041680;28;20194;-72
2023/11/09 04:15:26;;;;;;;2.30;2.13;;;;;;;;;;5030059;28;20213;-73
2023/11/09 04:17:51;;;;;;;3.25;2.55;;;;;;;;;;5029585;28;20694;-74
2023/11/09 04:20:20;;;;;;;4.85;2.67;;;;;;;;;;5032933;28;20198;-75
2023/11/09 04:22:46;;;;;;;3.05;2.67;;;;;;;;;;5024374;28;20206;-73
2023/11/09 04:25:11;;;;;;;2.13;1.95;;;;;;;;;;5022340;28;20560;-73
2023/11/09 04:27:39;;;;;;;3.17;2.50;;;;;;;;;;5021904;28;20197;-73
2023/11/09 04:30:09;;;;;;;3.55;2.28;;;;;;;;;;5026228;28;20285;-73
2023/11/09 04:32:34;;;;;;;2.55;2.35;;;;;;;;;;5023063;28;20300;-73
2023/11/09 04:34:59;;;;;;;3.10;2.63;;;;;;;;;;5025185;28;20218;-73
2023/11/09 04:37:25;;;;;;;4.05;2.33;;;;;;;;;;5009014;28;20191;-72
2023/11/09 04:39:57;;;;;;;2.80;2.47;;;;;;;;;;5030769;28;20182;-73
2023/11/09 04:42:24;;;;;;;3.45;2.67;;;;;;;;;;5029689;28;20716;-73
2023/11/09 04:44:53;;;;;;;3.40;2.30;;;;;;;;;;5031437;28;20224;-72
2023/11/09 04:47:21;;;;;;;2.90;2.70;;;;;;;;;;5028625;28;20944;-73
2023/11/09 04:49:49;;;;;;;3.75;2.50;;;;;;;;;;5026865;28;20187;-72
2023/11/09 04:52:16;;;;;;;3.13;2.83;;;;;;;;;;5024685;28;20186;-73
2023/11/09 04:54:56;;;;;;;3.20;2.90;;;;;;;;;;5030149;28;20693;-72
2023/11/09 05:08:33;;;;;;;5.05;2.92;;;;;;;;;;5014447;28;20206;-73
2023/11/09 05:10:58;;;;;;;3.28;2.50;;;;;;;;;;5024441;28;20516;-72
2023/11/09 05:13:24;;;;;;;13.00;3.05;;;;;;;;;;5023765;28;20206;-72
2023/11/09 05:15:49;;;;;;;2.90;2.70;;;;;;;;;;5039691;28;20232;-73
2023/11/09 05:18:15;;;;;;;2.70;2.50;;;;;;;;;;5028009;28;20296;-71
2023/11/09 05:20:40;;;;;;;3.08;2.88;;;;;;;;;;5029212;28;20216;-71
2023/11/09 05:23:08;;;;;;;3.38;3.08;;;;;;;;;;5019337;28;20191;-71
2023/11/09 05:25:34;;;;;;;3.58;2.97;;;;;;;;;;5027282;28;20182;-71
2023/11/09 05:27:59;;;;;;;5.30;3.30;;;;;;;;;;5026488;28;20221;-73
2023/11/09 05:30:25;;;;;;;3.15;2.85;;;;;;;;;;5028054;28;20218;-74
2023/11/09 05:32:50;;;;;;;3.20;2.90;;;;;;;;;;5019688;28;20224;-73
2023/11/09 05:35:17;;;;;;;3.78;3.47;;;;;;;;;;5009440;28;20236;-72
2023/11/09 05:37:42;;;;;;;3.65;3.20;;;;;;;;;;5023164;28;20187;-72
2023/11/09 05:40:09;;;;;;;4.20;3.80;;;;;;;;;;5022569;28;20213;-72
2023/11/09 05:42:35;;;;;;;4.78;3.90;;;;;;;;;;5017035;28;20194;-72
2023/11/09 05:45:02;;;;;;;6.63;4.07;;;;;;;;;;5028533;28;20635;-72
2023/11/09 05:47:28;;;;;;;6.25;4.72;;;;;;;;;;5026927;28;20590;-72
2023/11/09 05:49:56;;;;;;;5.40;4.45;;;;;;;;;;5017687;28;20199;-72
2023/11/09 05:52:22;;;;;;;5.45;4.65;;;;;;;;;;5019585;28;20209;-71
2023/11/09 05:54:48;;;;;;;8.23;5.43;;;;;;;;;;5027296;28;20210;-73
2023/11/09 05:57:14;;;;;;;5.55;4.90;;;;;;;;;;5034343;28;20672;-71
2023/11/09 05:59:39;;;;;;;8.18;5.70;;;;;;;;;;5023048;28;20189;-72
2023/11/09 06:02:07;;;;;;;7.07;5.22;;;;;;;;;;5025102;28;20190;-72
2023/11/09 06:04:33;;;;;;;6.07;5.47;;;;;;;;;;5026298;28;20632;-73
2023/11/09 06:07:00;;;;;;;7.80;5.82;;;;;;;;;;5029845;28;20273;-71
2023/11/09 06:09:25;;;;;;;6.97;6.13;;;;;;;;;;5023577;28;20205;-72
2023/11/09 06:11:53;;;;;;;9.30;6.40;;;;;;;;;;5025767;28;20257;-71
2023/11/09 06:14:19;;;;;;;8.85;5.88;;;;;;;;;;5023268;28;20668;-71
2023/11/09 06:16:44;;;;;;;7.05;6.45;;;;;;;;;;5023317;28;20234;-71
2023/11/09 06:19:09;;;;;;;8.57;6.88;;;;;;;;;;5024316;28;20213;-73
2023/11/09 06:21:35;;;;;;;7.85;6.22;;;;;;;;;;5021473;28;20198;-73
2023/11/09 06:24:00;;;;;;;7.22;6.47;;;;;;;;;;5015633;28;20202;-72
2023/11/09 06:26:26;;;;;;;9.55;7.07;;;;;;;;;;5018361;28;20194;-72
2023/11/09 06:28:52;;;;;;;10.65;7.20;;;;;;;;;;5036599;28;20287;-72
2023/11/09 06:31:18;;;;;;;12.88;7.45;;;;;;;;;;5026125;28;20198;-72
2023/11/09 06:33:43;;;;;;;8.93;7.90;;;;;;;;;;5025940;28;20178;-74
2023/11/09 06:36:08;;;;;;;9.05;8.13;;;;;;;;;;5027015;28;20230;-74
2023/11/09 06:38:35;;;;;;;9.02;7.63;;;;;;;;;;5016749;28;20194;-73
2023/11/09 06:41:02;;;;;;;12.52;8.23;;;;;;;;;;5038322;28;20530;-73
2023/11/09 06:43:28;;;;;;;10.95;8.05;;;;;;;;;;5029162;28;20323;-73
2023/11/09 06:45:53;;;;;;;10.32;8.32;;;;;;;;;;5018373;28;20281;-73
2023/11/09 06:48:19;;;;;;;9.85;8.23;;;;;;;;;;5003263;28;20190;-73
2023/11/09 06:50:44;;;;;;;9.82;8.73;;;;;;;;;;5016783;28;20632;-74
2023/11/09 06:53:10;;;;;;;10.75;8.88;;;;;;;;;;5025191;28;20510;-74
2023/11/09 06:55:36;;;;;;;12.30;9.18;;;;;;;;;;5024446;28;20337;-73
2023/11/09 06:58:01;;;;;;;12.00;9.40;;;;;;;;;;5029869;28;20194;-73
2023/11/09 07:00:27;;;;;;;9.88;8.77;;;;;;;;;;5021165;28;20595;-73
2023/11/09 07:02:53;;;;;;;9.43;8.38;;;;;;;;;;5027943;28;20237;-73
2023/11/09 07:05:24;;;;;;;12.43;9.40;;;;;;;;;;5025017;28;20193;-73
2023/11/09 07:07:49;;;;;;;11.90;9.38;;;;;;;;;;5021648;28;20182;-73
2023/11/09 07:10:15;;;;;;;13.75;9.77;;;;;;;;;;5021062;28;20692;-72
2023/11/09 07:12:41;;;;;;;11.52;9.68;;;;;;;;;;5028907;28;20190;-72
2023/11/09 07:15:07;;;;;;;11.55;9.68;;;;;;;;;;5028917;28;20249;-73
2023/11/09 07:17:33;;;;;;;13.07;10.45;;;;;;;;;;5027203;28;20288;-72
2023/11/09 07:19:59;;;;;;;13.65;11.80;;;;;;;;;;5029517;28;20220;-71
2023/11/09 07:22:24;;;;;;;11.75;9.45;;;;;;;;;;5029187;28;20269;-72
2023/11/09 07:24:52;;;;;;;12.00;9.52;;;;;;;;;;5031700;28;20190;-71
2023/11/09 07:27:18;;;;;;;14.68;9.88;;;;;;;;;;5018852;28;20189;-71
2023/11/09 07:29:43;;;;;;;11.68;9.50;;;;;;;;;;5030509;28;20282;-71
2023/11/09 07:32:09;;;;;;;11.50;9.20;;;;;;;;;;5036219;28;20236;-72
2023/11/09 07:34:36;;;;;;;11.90;8.63;;;;;;;;;;5024234;28;20231;-72
2023/11/09 07:37:01;;;;;;;12.20;9.23;;;;;;;;;;5024149;28;20750;-70
2023/11/09 07:39:27;;;;;;;11.63;8.77;;;;;;;;;;5021921;28;20198;-70
2023/11/09 07:42:00;;;;;;;13.00;9.25;;;;;;;;;;5028586;28;20219;-70
2023/11/09 07:44:29;;;;;;;13.15;9.95;;;;;;;;;;5028557;28;20723;-70
2023/11/09 07:46:55;;;;;;;13.82;10.80;;;;;;;;;;5026283;28;20526;-70
2023/11/09 07:49:21;;;;;;;15.30;10.75;;;;;;;;;;5043701;28;20205;-71
2023/11/09 07:51:48;;;;;;;17.83;10.25;;;;;;;;;;5018228;28;20195;-70
2023/11/09 07:54:14;;;;;;;12.85;9.68;;;;;;;;;;5029658;28;20186;-70
2023/11/09 07:56:40;;;;;;;13.40;8.77;;;;;;;;;;5034880;28;20221;-69
2023/11/09 07:59:05;;;;;;;14.10;9.40;;;;;;;;;;5029476;28;20190;-69
2023/11/09 08:01:31;;;;;;;13.35;9.55;;;;;;;;;;5022267;28;20253;-70
2023/11/09 08:03:57;;;;;;;14.05;8.35;;;;;;;;;;5028607;28;20558;-69
2023/11/09 08:06:22;;;;;;;13.90;8.45;;;;;;;;;;5020630;28;20198;-68
2023/11/09 08:08:52;;;;;;;12.98;7.45;;;;;;;;;;5013153;28;20237;-69
2023/11/09 08:11:19;;;;;;;17.38;6.57;;;;;;;;;;5022152;28;20750;-69
2023/11/09 08:13:45;;;;;;;17.08;5.93;;;;;;;;;;5021967;28;20475;-69
2023/11/09 08:16:10;;;;;;;10.95;6.15;;;;;;;;;;5028927;28;21421;-69
2023/11/09 08:18:36;;;;;;;12.43;6.30;;;;;;;;;;5023855;28;20264;-69
2023/11/09 08:21:03;;;;;;;14.10;5.13;;;;;;;;;;5026042;28;20542;-70
2023/11/09 08:23:31;;;;;;;11.30;4.60;;;;;;;;;;5032680;28;20786;-69
2023/11/09 08:25:57;;;;;;;7.95;3.60;;;;;;;;;;5029836;28;20190;-69
2023/11/09 08:28:24;;;;;;;9.23;3.88;;;;;;;;;;5020439;28;20332;-70
2023/11/09 08:30:51;;;;;;;8.65;3.60;;;;;;;;;;5025295;28;20518;-70
2023/11/09 08:33:21;;;;;;;12.27;4.45;;;;;;;;;;5018743;28;20191;-70
2023/11/09 08:35:48;;;;;;;11.27;4.25;;;;;;;;;;5019836;28;20726;-70
2023/11/09 08:38:14;;;;;;;12.10;3.92;;;;;;;;;;4332666;28;10000815;-71
2023/11/09 08:40:39;;;;;;;13.93;4.40;;;;;;;;;;5025555;28;20436;-70
2023/11/09 08:43:05;;;;;;;15.40;3.17;;;;;;;;;;5021851;28;20662;-69
2023/11/09 08:45:31;;;;;;;14.65;3.50;;;;;;;;;;5021576;28;20244;-69
2023/11/09 08:47:57;;;;;;;14.57;3.15;;;;;;;;;;5023543;28;20273;-71
2023/11/09 08:50:24;;;;;;;10.30;3.78;;;;;;;;;;5019100;28;20356;-70
2023/11/09 08:52:51;;;;;;;13.07;3.50;;;;;;;;;;5028102;28;20220;-70
2023/11/09 08:55:18;;;;;;;13.57;6.22;;;;;;;;;;5013894;28;20210;-70
2023/11/09 08:57:44;;;;;;;12.90;6.10;;;;;;;;;;5017066;28;20194;-70
2023/11/09 09:00:13;;;;;;;13.13;7.53;;;;;;;;;;5024300;28;20190;-70
2023/11/09 09:02:49;;;;;;;16.98;8.68;;;;;;;;;;5018879;28;20255;-70
2023/11/09 09:05:19;;;;;;;13.63;8.63;;;;;;;;;;5027603;28;20209;-71
2023/11/09 09:07:49;;;;;;;13.55;7.30;;;;;;;;;;5022796;28;20313;-70
2023/11/09 09:10:16;;;;;;;12.98;6.60;;;;;;;;;;5021998;28;20206;-70
2023/11/09 09:12:45;;;;;;;11.73;6.57;;;;;;;;;;5027102;28;20626;-70
2023/11/09 09:15:17;;;;;;;14.00;6.65;;;;;;;;;;5026636;28;20747;-69
2023/11/09 09:17:43;;;;;;;8.80;5.22;;;;;;;;;;5012790;28;20231;-70
2023/11/09 09:20:13;;;;;;;10.70;5.45;;;;;;;;;;5019686;28;20204;-69
2023/11/09 09:22:43;;;;;;;12.93;4.97;;;;;;;;;;5028887;28;20182;-69
2023/11/09 09:25:12;;;;;;;13.52;5.22;;;;;;;;;;5021886;28;20704;-69
2023/11/09 09:27:40;;;;;;;11.65;5.10;;;;;;;;;;5019538;28;20266;-70
2023/11/09 09:30:13;;;;;;;15.25;5.13;;;;;;;;;;5024824;28;20496;-69
2023/11/09 09:32:42;;;;;;;7.75;4.70;;;;;;;;;;5024836;28;20205;-71
2023/11/09 09:35:10;;;;;;;15.15;5.28;;;;;;;;;;5019727;28;20233;-70
2023/11/09 09:37:37;;;;;;;13.02;5.20;;;;;;;;;;5023060;28;20684;-70
2023/11/09 09:40:15;;;;;;;11.18;4.82;;;;;;;;;;5023321;28;20795;-70
2023/11/09 09:42:53;;;;;;;10.68;5.07;;;;;;;;;;5024174;28;20198;-70
2023/11/09 09:45:22;;;;;;;12.23;4.95;;;;;;;;;;5026756;28;20197;-70
2023/11/09 09:47:49;;;;;;;8.45;5.10;;;;;;;;;;4673899;28;10000387;-70
2023/11/09 09:50:16;;;;;;;10.13;5.57;;;;;;;;;;5022832;28;20190;-70
2023/11/09 09:52:46;;;;;;;9.80;4.90;;;;;;;;;;5023666;28;20265;-71
2023/11/09 09:55:16;;;;;;;14.18;5.82;;;;;;;;;;5023629;28;20685;-70
2023/11/09 09:57:43;;;;;;;16.33;6.07;;;;;;;;;;5023400;28;20230;-70
2023/11/09 10:00:23;;;;;;;9.27;5.82;;;;;;;;;;5019138;28;20198;-70
2023/11/09 10:03:02;;;;;;;15.48;5.88;;;;;;;;;;5018826;28;20232;-69
2023/11/09 10:05:33;;;;;;;10.75;5.22;;;;;;;;;;5020706;28;20190;-70
2023/11/09 10:08:07;;;;;;;13.15;6.15;;;;;;;;;;5019387;28;20199;-70
2023/11/09 10:10:52;;;;;;;14.63;7.05;;;;;;;;;;5017505;28;20190;-69
2023/11/09 10:13:20;;;;;;;16.75;7.65;;;;;;;;;;5022170;28;20595;-71
2023/11/09 10:15:53;;;;;;;20.90;8.30;;;;;;;;;;5021413;28;20706;-70
2023/11/09 10:18:19;;;;;;;21.08;8.90;;;;;;;;;;5017370;28;20225;-70
2023/11/09 10:20:56;;;;;;;21.02;9.25;;;;;;;;;;5022867;28;20193;-70
2023/11/09 10:23:21;;;;;;;18.10;8.90;;;;;;;;;;5018108;28;20189;-70
2023/11/09 10:25:51;;;;;;;19.17;9.35;;;;;;;;;;5018273;28;20548;-70
2023/11/09 10:28:16;;;;;;;20.23;10.27;;;;;;;;;;5022020;28;20201;-70
2023/11/09 10:30:46;;;;;;;21.52;9.63;;;;;;;;;;5024552;28;20197;-69
2023/11/09 10:33:14;;;;;;;21.23;10.13;;;;;;;;;;5011089;28;20255;-70
2023/11/09 10:35:41;;;;;;;19.10;10.57;;;;;;;;;;5015849;28;20264;-69
2023/11/09 10:38:20;;;;;;;18.75;10.88;;;;;;;;;;5019681;28;20248;-70
2023/11/09 10:40:48;;;;;;;23.92;11.10;;;;;;;;;;5008216;28;20711;-70
2023/11/09 10:43:14;;;;;;;20.02;10.40;;;;;;;;;;5020766;28;20237;-70
2023/11/09 10:45:49;;;;;;;22.17;10.85;;;;;;;;;;5026110;28;20197;-68
2023/11/09 10:48:18;;;;;;;26.55;11.00;;;;;;;;;;5020225;28;20212;-70
2023/11/09 10:50:47;;;;;;;23.50;10.13;;;;;;;;;;5014230;28;20270;-70
2023/11/09 10:53:20;;;;;;;21.75;10.35;;;;;;;;;;5021729;28;20205;-70
2023/11/09 10:55:53;;;;;;;23.13;9.50;;;;;;;;;;5024186;28;20293;-70
2023/11/09 10:58:20;;;;;;;19.95;9.68;;;;;;;;;;5024279;28;20190;-69
2023/11/09 11:00:58;;;;;;;23.85;10.00;;;;;;;;;;5037811;28;20232;-69
2023/11/09 11:03:28;;;;;;;21.55;9.20;;;;;;;;;;5024113;28;21764;-71
2023/11/09 11:05:59;;;;;;;28.83;9.13;;;;;;;;;;5024178;28;20178;-69
2023/11/09 11:08:26;;;;;;;22.00;9.32;;;;;;;;;;5030585;28;20274;-69
2023/11/09 11:10:53;;;;;;;18.60;8.02;;;;;;;;;;5030625;28;20186;-69
2023/11/09 11:13:20;;;;;;;20.45;8.07;;;;;;;;;;5030396;28;20247;-69
2023/11/09 11:16:20;;;;;;;20.85;7.53;;;;;;;;;;5028298;28;20209;-69
2023/11/09 11:18:52;;;;;;;17.02;6.90;;;;;;;;;;5023060;28;20290;-69
2023/11/09 11:21:52;;;;;;;15.77;7.70;;;;;;;;;;5027798;28;20712;-70
2023/11/09 11:25:02;;;;;;;20.52;7.20;;;;;;;;;;5030617;28;20247;-70
2023/11/09 11:27:44;;;;;;;21.23;7.45;;;;;;;;;;5028317;28;20214;-69
2023/11/09 11:30:26;;;;;;;17.50;6.70;;;;;;;;;;5028879;28;20197;-69
2023/11/09 11:32:59;;;;;;;12.60;5.93;;;;;;;;;;5026237;28;20190;-70
2023/11/09 11:35:43;;;;;;;16.75;5.70;;;;;;;;;;5028209;28;20211;-70
2023/11/09 11:38:30;;;;;;;17.70;5.47;;;;;;;;;;5025410;28;20194;-69
2023/11/09 11:41:05;;;;;;;14.65;5.15;;;;;;;;;;5022999;28;20190;-69
2023/11/09 11:43:38;;;;;;;12.25;4.95;;;;;;;;;;5026528;28;20642;-69
2023/11/09 11:46:24;;;;;;;14.90;4.72;;;;;;;;;;5023318;28;20204;-70
2023/11/09 11:48:59;;;;;;;15.55;5.07;;;;;;;;;;5022013;28;20617;-72
2023/11/09 11:51:26;;;;;;;16.02;4.88;;;;;;;;;;5031202;28;20182;-70
2023/11/09 11:54:12;;;;;;;14.07;4.63;;;;;;;;;;5028236;28;20193;-69
2023/11/09 11:56:38;;;;;;;17.02;5.93;;;;;;;;;;5022017;28;20582;-69
2023/11/09 11:59:09;;;;;;;14.60;5.53;;;;;;;;;;5019713;28;20286;-68
2023/11/09 12:01:36;;;;;;;21.15;6.15;;;;;;;;;;5025281;28;20201;-68
2023/11/09 12:04:03;;;;;;;14.38;6.07;;;;;;;;;;5026007;28;20249;-68
2023/11/09 12:06:30;;;;;;;24.40;6.63;;;;;;;;;;5024296;28;20190;-69
2023/11/09 12:08:58;;;;;;;19.30;7.15;;;;;;;;;;5040798;28;20244;-71
2023/11/09 12:11:33;;;;;;;15.73;7.32;;;;;;;;;;5024586;28;20270;-70
2023/11/09 12:14:04;;;;;;;16.70;6.43;;;;;;;;;;5028134;28;20181;-71
2023/11/09 12:16:30;;;;;;;18.58;6.55;;;;;;;;;;5024234;28;20245;-70
2023/11/09 12:18:56;;;;;;;17.70;6.72;;;;;;;;;;5022140;28;20190;-71
2023/11/09 12:21:29;;;;;;;17.95;6.60;;;;;;;;;;5026657;28;20224;-69
2023/11/09 12:23:57;;;;;;;14.88;6.15;;;;;;;;;;5016406;28;20212;-70
2023/11/09 12:26:24;;;;;;;14.55;5.65;;;;;;;;;;5021296;28;20186;-69
2023/11/09 12:28:53;;;;;;;17.30;6.38;;;;;;;;;;5023866;28;20197;-69
2023/11/09 12:31:20;;;;;;;15.93;6.20;;;;;;;;;;5025131;28;20520;-69
2023/11/09 12:34:05;;;;;;;17.80;6.80;;;;;;;;;;5024789;28;20197;-69
2023/11/09 12:36:38;;;;;;;16.70;6.43;;;;;;;;;;5022056;28;20657;-70
2023/11/09 12:41:52;;;;;;;23.50;7.53;;;;;;;;;;5024190;28;20414;-69
2023/11/09 12:44:42;;;;;;;21.20;6.85;;;;;;;;;;5024073;28;20198;-69
2023/11/09 12:47:08;;;;;;;16.02;6.93;;;;;;;;;;5016403;28;20198;-68
2023/11/09 12:49:34;;;;;;;26.10;6.97;;;;;;;;;;5015378;28;20619;-69
2023/11/09 12:52:05;;;;;;;25.08;7.32;;;;;;;;;;5019670;28;20630;-70
2023/11/09 12:54:31;;;;;;;17.58;6.65;;;;;;;;;;5022580;28;20190;-70
2023/11/09 12:56:56;;;;;;;23.27;5.28;;;;;;;;;;5023114;28;20645;-68
2023/11/09 12:59:28;;;;;;;14.32;4.70;;;;;;;;;;5027508;28;20572;-72
2023/11/09 13:02:03;;;;;;;19.13;5.07;;;;;;;;;;5026018;28;20277;-69
2023/11/09 13:04:37;;;;;;;19.10;5.05;;;;;;;;;;5030325;28;20641;-68
2023/11/09 13:07:02;;;;;;;16.15;4.65;;;;;;;;;;5037584;28;20276;-69
2023/11/09 13:11:55;;;;;;;12.95;3.75;;;;;;;;;;5027033;28;20178;-71
2023/11/09 13:14:32;;;;;;;18.60;4.20;;;;;;;;;;5015915;28;20203;-69
2023/11/09 13:16:58;;;;;;;14.82;3.13;;;;;;;;;;5030028;28;20591;-69
2023/11/09 13:19:26;;;;;;;17.70;4.30;;;;;;;;;;5014614;28;20216;-69
2023/11/09 13:21:52;;;;;;;19.13;4.50;;;;;;;;;;5030267;28;20190;-69
2023/11/09 13:24:28;;;;;;;14.30;4.43;;;;;;;;;;5027472;28;20633;-69
2023/11/09 13:26:54;;;;;;;15.90;3.58;;;;;;;;;;5027167;28;20286;-70
2023/11/09 13:29:22;;;;;;;13.65;3.30;;;;;;;;;;5029665;28;20224;-69
2023/11/09 13:31:52;;;;;;;16.30;3.35;;;;;;;;;;5021882;28;20198;-69
2023/11/09 13:34:18;;;;;;;13.20;3.25;;;;;;;;;;5013184;28;20197;-70
2023/11/09 13:36:57;;;;;;;22.63;2.95;;;;;;;;;;5015627;28;20280;-70
2023/11/09 13:42:00;;;;;;;14.70;3.50;;;;;;;;;;5023376;28;20182;-69
2023/11/09 13:44:26;;;;;;;14.45;3.33;;;;;;;;;;5018612;28;20186;-70
2023/11/09 13:46:57;;;;;;;13.55;3.22;;;;;;;;;;5009327;28;20226;-70
2023/11/09 13:49:23;;;;;;;20.00;3.80;;;;;;;;;;5023836;28;20276;-70
2023/11/09 13:54:43;;;;;;;15.90;3.33;;;;;;;;;;5022234;28;21409;-70
2023/11/09 13:57:18;;;;;;;16.77;3.40;;;;;;;;;;5022215;28;20349;-71
2023/11/09 13:59:53;;;;;;;16.75;3.38;;;;;;;;;;5023184;28;20212;-69
2023/11/09 14:02:20;;;;;;;11.18;3.10;;;;;;;;;;5024670;28;20189;-70
2023/11/09 14:04:52;;;;;;;13.75;3.33;;;;;;;;;;5023657;28;20655;-70
2023/11/09 14:07:18;;;;;;;16.75;3.00;;;;;;;;;;5022702;28;20225;-70
2023/11/09 14:09:44;;;;;;;14.35;2.97;;;;;;;;;;5015652;28;20198;-69
2023/11/09 14:12:12;;;;;;;11.32;2.42;;;;;;;;;;5023579;28;20194;-69
2023/11/09 14:14:49;;;;;;;13.65;2.58;;;;;;;;;;5017588;28;20221;-70
2023/11/09 14:17:17;;;;;;;11.38;2.83;;;;;;;;;;5016381;28;20237;-69
2023/11/09 14:19:54;;;;;;;11.65;2.67;;;;;;;;;;5019550;28;20217;-70
2023/11/09 14:22:20;;;;;;;15.57;2.78;;;;;;;;;;5015680;28;20289;-69
2023/11/09 14:24:46;;;;;;;9.65;2.30;;;;;;;;;;5018447;28;20289;-69
2023/11/09 14:27:12;;;;;;;14.45;2.78;;;;;;;;;;5021077;28;20279;-69
2023/11/09 14:29:40;;;;;;;15.07;2.90;;;;;;;;;;5021335;28;20923;-72
2023/11/09 14:32:06;;;;;;;8.30;2.22;;;;;;;;;;5022865;28;20453;-69
2023/11/09 14:34:33;;;;;;;11.07;2.22;;;;;;;;;;5021505;28;20193;-69
2023/11/09 14:36:59;;;;;;;9.90;2.40;;;;;;;;;;5022209;28;20270;-69
2023/11/09 14:39:36;;;;;;;11.48;2.60;;;;;;;;;;5017500;28;20195;-69
2023/11/09 14:42:05;;;;;;;14.40;2.60;;;;;;;;;;5020152;28;20220;-69
2023/11/09 14:44:33;;;;;;;11.38;2.20;;;;;;;;;;5019284;28;20201;-70
2023/11/09 14:46:59;;;;;;;9.20;2.15;;;;;;;;;;5023238;28;20190;-69
2023/11/09 14:49:27;;;;;;;13.27;2.92;;;;;;;;;;5015335;28;20186;-69
2023/11/09 14:51:54;;;;;;;12.50;2.97;;;;;;;;;;5021060;28;20697;-69
2023/11/09 14:54:28;;;;;;;15.75;2.22;;;;;;;;;;5021426;28;20652;-70
2023/11/09 14:56:54;;;;;;;10.13;2.30;;;;;;;;;;5019427;28;20214;-70
2023/11/09 14:59:21;;;;;;;13.35;2.58;;;;;;;;;;5023777;28;20182;-70
2023/11/09 15:01:47;;;;;;;14.70;2.80;;;;;;;;;;5036653;28;20340;-69
2023/11/09 15:04:33;;;;;;;13.60;2.79;;;;;;;;;;4957461;28;10000620;-70